createdAt,value
2017-10-28T00:00:04.185Z,99.99
2017-10-28T00:01:04.125Z,99.99
2017-10-28T00:02:04.082Z,99.99
2017-10-28T00:03:04.057Z,99.99
2017-10-28T00:04:03.995Z,99.99
2017-10-28T00:05:03.959Z,99.99
2017-10-28T00:06:03.909Z,99.99
2017-10-28T00:07:03.876Z,99.99
2017-10-28T00:08:03.836Z,99.99
2017-10-28T00:09:03.783Z,99.99
2017-10-28T00:10:03.748Z,99.99
2017-10-28T00:11:03.720Z,99.99
2017-10-28T00:12:03.665Z,99.99
2017-10-28T00:13:03.629Z,99.99
2017-10-28T00:14:03.588Z,99.99
2017-10-28T00:15:03.547Z,99.99
2017-10-28T00:16:03.491Z,99.99
2017-10-28T00:17:03.464Z,99.99
2017-10-28T00:18:03.413Z,99.99
2017-10-28T00:19:03.368Z,99.99
2017-10-28T00:20:03.345Z,99.99
2017-10-28T00:21:03.292Z,99.99
2017-10-28T00:22:03.248Z,99.99
2017-10-28T00:23:03.239Z,99.99
2017-10-28T00:24:03.170Z,99.99
2017-10-28T00:25:03.138Z,99.99
2017-10-28T00:26:03.098Z,99.99
2017-10-28T00:27:03.059Z,99.99
2017-10-28T00:28:03.000Z,99.99
2017-10-28T00:29:02.956Z,99.99
2017-10-28T00:30:02.913Z,99.99
2017-10-28T00:31:02.865Z,99.99
2017-10-28T00:32:02.858Z,99.99
2017-10-28T00:33:02.791Z,99.99
2017-10-28T00:34:02.745Z,99.99
2017-10-28T00:35:02.704Z,99.99
2017-10-28T00:36:02.668Z,99.99
2017-10-28T00:37:02.618Z,99.99
2017-10-28T00:38:02.611Z,99.99
2017-10-28T00:39:02.531Z,99.99
2017-10-28T00:40:02.501Z,99.99
2017-10-28T00:41:02.451Z,99.99
2017-10-28T00:42:02.414Z,99.99
2017-10-28T00:43:02.372Z,99.99
2017-10-28T00:44:02.340Z,99.99
2017-10-28T00:45:02.292Z,99.99
2017-10-28T00:46:02.243Z,99.99
2017-10-28T00:47:02.205Z,99.99
2017-10-28T00:48:02.164Z,99.99
2017-10-28T00:49:02.121Z,99.99
2017-10-28T00:50:02.093Z,99.99
2017-10-28T00:51:02.047Z,99.99
2017-10-28T00:52:01.993Z,99.99
2017-10-28T00:53:01.950Z,99.99
2017-10-28T00:54:01.902Z,99.99
2017-10-28T00:55:01.860Z,99.99
2017-10-28T00:56:01.838Z,99.99
2017-10-28T00:57:01.812Z,99.99
2017-10-28T00:58:01.746Z,99.99
2017-10-28T00:59:01.715Z,99.99
2017-10-28T01:00:01.660Z,99.99
2017-10-28T01:01:01.637Z,99.99
2017-10-28T01:02:01.574Z,99.99
2017-10-28T01:03:01.556Z,99.99
2017-10-28T01:04:01.484Z,99.99
2017-10-28T01:05:01.446Z,99.99
2017-10-28T01:06:01.408Z,99.99
2017-10-28T01:07:01.366Z,99.99
2017-10-28T01:08:01.321Z,99.99
2017-10-28T01:09:01.284Z,99.99
2017-10-28T01:10:01.280Z,99.99
2017-10-28T01:11:01.202Z,99.99
2017-10-28T01:12:01.165Z,99.99
2017-10-28T01:13:01.120Z,99.99
2017-10-28T01:14:01.091Z,99.99
2017-10-28T01:15:01.067Z,99.99
2017-10-28T01:16:00.989Z,99.99
2017-10-28T01:17:00.968Z,99.99
2017-10-28T01:18:00.905Z,99.99
2017-10-28T01:19:00.867Z,99.99
2017-10-28T01:20:00.840Z,99.99
2017-10-28T01:21:00.788Z,99.99
2017-10-28T01:22:00.766Z,99.99
2017-10-28T01:23:00.710Z,99.99
2017-10-28T01:24:00.732Z,99.99
2017-10-28T01:25:00.649Z,99.99
2017-10-28T01:26:00.584Z,99.99
2017-10-28T01:27:00.537Z,99.99
2017-10-28T01:28:00.497Z,99.99
2017-10-28T01:29:00.461Z,99.99
2017-10-28T01:30:00.426Z,99.99
2017-10-28T01:31:00.401Z,99.99
2017-10-28T01:32:00.344Z,99.99
2017-10-28T01:33:00.304Z,99.99
2017-10-28T01:34:00.248Z,99.99
2017-10-28T01:35:00.212Z,99.99
2017-10-28T01:36:00.168Z,99.99
2017-10-28T01:37:00.130Z,99.99
2017-10-28T01:38:00.089Z,99.99
2017-10-28T01:39:00.037Z,99.99
2017-10-28T01:40:00.002Z,99.99
2017-10-28T01:40:59.983Z,99.99
2017-10-28T01:41:59.920Z,99.99
2017-10-28T01:42:59.892Z,99.99
2017-10-28T01:43:59.830Z,99.99
2017-10-28T01:44:59.807Z,99.99
2017-10-28T01:45:59.749Z,99.99
2017-10-28T01:46:59.703Z,99.99
2017-10-28T01:47:59.666Z,99.99
2017-10-28T01:48:59.629Z,99.99
2017-10-28T01:49:59.576Z,99.99
2017-10-28T01:50:59.551Z,99.99
2017-10-28T01:51:59.518Z,99.99
2017-10-28T01:52:59.457Z,99.99
2017-10-28T01:53:59.415Z,99.99
2017-10-28T01:54:59.368Z,99.99
2017-10-28T01:55:59.325Z,99.99
2017-10-28T01:56:59.332Z,99.99
2017-10-28T01:57:59.250Z,99.99
2017-10-28T01:58:59.205Z,99.99
2017-10-28T01:59:59.170Z,99.99
2017-10-28T02:00:59.125Z,99.99
2017-10-28T02:01:59.083Z,99.99
2017-10-28T02:02:59.035Z,99.99
2017-10-28T02:03:59.001Z,99.99
2017-10-28T02:04:58.982Z,99.99
2017-10-28T02:05:58.928Z,99.99
2017-10-28T02:06:58.884Z,99.99
2017-10-28T02:07:58.838Z,99.99
2017-10-28T02:08:58.794Z,99.99
2017-10-28T02:09:58.738Z,99.99
2017-10-28T02:10:58.701Z,99.99
2017-10-28T02:11:58.661Z,99.99
2017-10-28T02:12:58.624Z,99.99
2017-10-28T02:13:58.584Z,99.99
2017-10-28T02:14:58.540Z,99.99
2017-10-28T02:15:58.502Z,99.99
2017-10-28T02:16:58.469Z,99.99
2017-10-28T02:17:58.421Z,99.99
2017-10-28T02:18:58.377Z,99.99
2017-10-28T02:19:58.331Z,99.99
2017-10-28T02:20:58.285Z,99.99
2017-10-28T02:21:58.252Z,99.99
2017-10-28T02:22:58.204Z,99.99
2017-10-28T02:23:58.165Z,99.99
2017-10-28T02:24:58.133Z,99.99
2017-10-28T02:25:58.081Z,99.99
2017-10-28T02:26:58.045Z,99.99
2017-10-28T02:27:58.015Z,99.99
2017-10-28T02:28:57.957Z,99.99
2017-10-28T02:29:58.014Z,99.99
2017-10-28T02:30:57.877Z,99.99
2017-10-28T02:31:57.845Z,99.99
2017-10-28T02:32:57.790Z,99.99
2017-10-28T02:33:57.754Z,99.99
2017-10-28T02:34:57.712Z,99.99
2017-10-28T02:35:57.671Z,99.99
2017-10-28T02:36:57.622Z,99.99
2017-10-28T02:37:57.575Z,99.99
2017-10-28T02:38:57.533Z,99.99
2017-10-28T02:39:57.494Z,99.99
2017-10-28T02:40:57.452Z,99.99
2017-10-28T02:41:57.428Z,99.99
2017-10-28T02:42:57.360Z,99.99
2017-10-28T02:43:57.333Z,99.99
2017-10-28T02:44:57.299Z,99.99
2017-10-28T02:45:57.249Z,99.99
2017-10-28T02:46:57.196Z,99.99
2017-10-28T02:47:57.156Z,99.99
2017-10-28T02:48:57.110Z,99.99
2017-10-28T02:49:57.079Z,99.99
2017-10-28T02:50:57.040Z,99.99
2017-10-28T02:51:57.013Z,99.99
2017-10-28T02:52:56.957Z,99.99
2017-10-28T02:53:56.903Z,99.99
2017-10-28T02:54:56.861Z,99.99
2017-10-28T02:55:56.837Z,99.99
2017-10-28T02:56:56.781Z,99.99
2017-10-28T02:57:56.741Z,99.99
2017-10-28T02:58:56.701Z,99.99
2017-10-28T02:59:56.650Z,99.99
2017-10-28T03:00:56.641Z,99.99
2017-10-28T03:01:56.569Z,99.99
2017-10-28T03:02:56.511Z,99.99
2017-10-28T03:03:56.481Z,99.99
2017-10-28T03:04:56.441Z,99.99
2017-10-28T03:05:56.391Z,99.99
2017-10-28T03:06:56.342Z,99.99
2017-10-28T03:07:56.305Z,99.99
2017-10-28T03:08:56.282Z,99.99
2017-10-28T03:09:56.227Z,99.99
2017-10-28T03:10:56.228Z,99.99
2017-10-28T03:11:56.171Z,99.99
2017-10-28T03:12:56.123Z,99.99
2017-10-28T03:13:56.068Z,99.99
2017-10-28T03:14:56.016Z,99.99
2017-10-28T03:15:55.994Z,99.99
2017-10-28T03:16:55.927Z,99.99
2017-10-28T03:17:55.892Z,99.99
2017-10-28T03:18:55.849Z,99.99
2017-10-28T03:19:55.838Z,99.99
2017-10-28T03:20:55.760Z,99.99
2017-10-28T03:21:57.687Z,99.99
2017-10-28T03:22:55.696Z,99.99
2017-10-28T03:23:55.634Z,99.99
2017-10-28T03:24:55.618Z,99.99
2017-10-28T03:25:55.564Z,99.99
2017-10-28T03:26:55.517Z,99.99
2017-10-28T03:27:55.497Z,99.99
2017-10-28T03:28:55.433Z,99.99
2017-10-28T03:29:55.385Z,99.99
2017-10-28T03:30:55.338Z,99.99
2017-10-28T03:31:55.320Z,99.99
2017-10-28T03:32:55.276Z,99.99
2017-10-28T03:33:55.220Z,99.99
2017-10-28T03:34:55.179Z,99.99
2017-10-28T03:35:55.132Z,99.99
2017-10-28T03:36:55.091Z,99.99
2017-10-28T03:37:55.068Z,99.99
2017-10-28T03:38:55.019Z,99.99
2017-10-28T03:39:54.967Z,99.74
2017-10-28T03:40:54.924Z,99.99
2017-10-28T03:41:54.900Z,99.99
2017-10-28T03:42:54.854Z,99.55
2017-10-28T03:43:54.831Z,99.26
2017-10-28T03:44:54.761Z,98.88
2017-10-28T03:45:54.745Z,98.83
2017-10-28T03:46:54.672Z,99.45
2017-10-28T03:47:54.644Z,99.26
2017-10-28T03:48:54.592Z,99.26
2017-10-28T03:49:54.558Z,99.64
2017-10-28T03:50:54.512Z,99.36
2017-10-28T03:51:54.471Z,98.60
2017-10-28T03:52:54.422Z,97.60
2017-10-28T03:53:54.398Z,98.41
2017-10-28T03:54:54.334Z,97.93
2017-10-28T03:55:54.315Z,97.98
2017-10-28T03:56:54.262Z,98.60
2017-10-28T03:57:54.233Z,99.26
2017-10-28T03:58:54.188Z,96.94
2017-10-28T03:59:54.138Z,97.64
2017-10-28T04:00:54.100Z,98.88
2017-10-28T04:01:54.065Z,98.22
2017-10-28T04:02:54.037Z,98.97
2017-10-28T04:03:53.973Z,97.64
2017-10-28T04:04:53.952Z,97.93
2017-10-28T04:05:53.901Z,98.97
2017-10-28T04:06:53.845Z,99.16
2017-10-28T04:07:53.796Z,97.55
2017-10-28T04:08:53.808Z,97.27
2017-10-28T04:09:53.723Z,97.98
2017-10-28T04:10:53.683Z,97.17
2017-10-28T04:11:53.625Z,97.88
2017-10-28T04:12:53.586Z,97.93
2017-10-28T04:13:53.565Z,98.03
2017-10-28T04:14:53.515Z,96.74
2017-10-28T04:15:53.470Z,96.65
2017-10-28T04:16:53.438Z,97.13
2017-10-28T04:17:53.397Z,97.50
2017-10-28T04:18:53.348Z,97.08
2017-10-28T04:19:53.335Z,97.13
2017-10-28T04:20:53.273Z,97.13
2017-10-28T04:21:53.220Z,96.94
2017-10-28T04:22:53.179Z,96.94
2017-10-28T04:23:53.137Z,96.60
2017-10-28T04:24:53.086Z,96.65
2017-10-28T04:25:53.077Z,96.74
2017-10-28T04:26:53.014Z,97.22
2017-10-28T04:27:52.977Z,96.89
2017-10-28T04:28:52.919Z,97.55
2017-10-28T04:29:52.917Z,97.27
2017-10-28T04:30:52.843Z,97.55
2017-10-28T04:31:52.807Z,97.36
2017-10-28T04:32:52.774Z,97.36
2017-10-28T04:33:52.727Z,98.31
2017-10-28T04:34:52.666Z,97.93
2017-10-28T04:35:52.642Z,97.45
2017-10-28T04:36:52.629Z,98.12
2017-10-28T04:37:52.545Z,98.41
2017-10-28T04:38:52.533Z,98.50
2017-10-28T04:39:52.498Z,98.50
2017-10-28T04:40:52.438Z,98.03
2017-10-28T04:41:52.406Z,98.50
2017-10-28T04:42:52.344Z,98.69
2017-10-28T04:43:52.301Z,98.03
2017-10-28T04:44:52.267Z,97.93
2017-10-28T04:45:52.213Z,98.69
2017-10-28T04:46:52.207Z,98.03
2017-10-28T04:47:52.139Z,98.03
2017-10-28T04:48:52.092Z,97.93
2017-10-28T04:49:52.103Z,98.03
2017-10-28T04:50:52.009Z,98.31
2017-10-28T04:51:51.960Z,98.12
2017-10-28T04:52:51.943Z,99.36
2017-10-28T04:53:51.901Z,99.07
2017-10-28T04:54:51.842Z,99.45
2017-10-28T04:55:51.798Z,98.88
2017-10-28T04:56:51.766Z,99.74
2017-10-28T04:57:51.728Z,99.99
2017-10-28T04:58:51.673Z,99.55
2017-10-28T04:59:51.626Z,99.26
2017-10-28T05:00:51.591Z,98.88
2017-10-28T05:01:51.553Z,99.64
2017-10-28T05:02:51.501Z,98.69
2017-10-28T05:03:51.476Z,99.74
2017-10-28T05:04:51.431Z,99.74
2017-10-28T05:05:51.400Z,99.64
2017-10-28T05:06:51.340Z,99.26
2017-10-28T05:07:51.334Z,99.45
2017-10-28T05:08:51.273Z,99.93
2017-10-28T05:09:51.222Z,98.60
2017-10-28T05:10:51.167Z,98.97
2017-10-28T05:11:51.138Z,98.88
2017-10-28T05:12:51.112Z,98.12
2017-10-28T05:13:51.059Z,98.97
2017-10-28T05:14:51.024Z,99.64
2017-10-28T05:15:50.990Z,99.16
2017-10-28T05:16:50.925Z,99.16
2017-10-28T05:17:50.890Z,99.55
2017-10-28T05:18:50.855Z,99.26
2017-10-28T05:19:50.813Z,98.97
2017-10-28T05:20:50.776Z,98.79
2017-10-28T05:21:50.744Z,98.50
2017-10-28T05:22:50.712Z,97.93
2017-10-28T05:23:50.642Z,97.88
2017-10-28T05:24:50.600Z,98.50
2017-10-28T05:25:50.571Z,97.22
2017-10-28T05:26:50.510Z,98.27
2017-10-28T05:27:50.489Z,98.22
2017-10-28T05:28:50.425Z,97.98
2017-10-28T05:29:50.405Z,98.31
2017-10-28T05:30:50.357Z,97.45
2017-10-28T05:31:50.303Z,98.31
2017-10-28T05:32:50.286Z,97.88
2017-10-28T05:33:50.234Z,97.31
2017-10-28T05:34:50.196Z,97.60
2017-10-28T05:35:50.157Z,97.64
2017-10-28T05:36:50.115Z,97.74
2017-10-28T05:37:50.052Z,96.84
2017-10-28T05:38:50.013Z,96.36
2017-10-28T05:39:50.007Z,97.98
2017-10-28T05:40:49.942Z,97.50
2017-10-28T05:41:49.897Z,97.88
2017-10-28T05:42:49.859Z,97.50
2017-10-28T05:43:49.799Z,96.74
2017-10-28T05:44:49.756Z,97.79
2017-10-28T05:45:49.736Z,97.22
2017-10-28T05:46:49.683Z,97.98
2017-10-28T05:47:49.624Z,97.79
2017-10-28T05:48:49.597Z,98.50
2017-10-28T05:49:49.547Z,97.03
2017-10-28T05:50:49.510Z,98.03
2017-10-28T05:51:49.487Z,98.31
2017-10-28T05:52:49.432Z,98.03
2017-10-28T05:53:49.399Z,95.98
2017-10-28T05:54:49.359Z,95.89
2017-10-28T05:55:49.306Z,96.26
2017-10-28T05:56:49.256Z,96.36
2017-10-28T05:57:49.221Z,96.17
2017-10-28T05:58:49.174Z,96.46
2017-10-28T05:59:49.176Z,96.08
2017-10-28T06:00:49.117Z,96.74
2017-10-28T06:01:49.055Z,95.70
2017-10-28T06:02:49.015Z,95.32
2017-10-28T06:03:48.981Z,95.22
2017-10-28T06:04:48.921Z,95.51
2017-10-28T06:05:48.903Z,95.12
2017-10-28T06:06:48.843Z,94.08
2017-10-28T06:07:48.803Z,94.46
2017-10-28T06:08:48.779Z,94.65
2017-10-28T06:09:48.767Z,95.22
2017-10-28T06:10:48.685Z,95.32
2017-10-28T06:11:48.639Z,95.51
2017-10-28T06:12:48.613Z,94.56
2017-10-28T06:13:48.560Z,95.22
2017-10-28T06:14:48.513Z,94.65
2017-10-28T06:15:48.470Z,96.08
2017-10-28T06:16:48.458Z,95.79
2017-10-28T06:17:48.392Z,95.22
2017-10-28T06:18:48.346Z,94.74
2017-10-28T06:19:48.303Z,93.51
2017-10-28T06:20:48.265Z,94.08
2017-10-28T06:21:48.219Z,94.27
2017-10-28T06:22:48.209Z,94.56
2017-10-28T06:23:48.153Z,93.70
2017-10-28T06:24:48.106Z,94.08
2017-10-28T06:25:48.050Z,94.84
2017-10-28T06:26:48.075Z,94.27
2017-10-28T06:27:47.973Z,94.93
2017-10-28T06:28:47.935Z,94.08
2017-10-28T06:29:47.885Z,92.94
2017-10-28T06:30:47.853Z,92.65
2017-10-28T06:31:47.829Z,93.04
2017-10-28T06:32:47.790Z,93.70
2017-10-28T06:33:47.746Z,94.08
2017-10-28T06:34:47.711Z,93.32
2017-10-28T06:35:47.679Z,93.70
2017-10-28T06:36:47.602Z,93.98
2017-10-28T06:37:47.586Z,92.65
2017-10-28T06:38:47.516Z,93.41
2017-10-28T06:39:47.488Z,93.04
2017-10-28T06:40:47.436Z,93.13
2017-10-28T06:41:47.424Z,92.65
2017-10-28T06:42:47.352Z,91.61
2017-10-28T06:43:47.320Z,92.56
2017-10-28T06:44:47.268Z,92.75
2017-10-28T06:45:47.253Z,93.13
2017-10-28T06:46:47.197Z,91.99
2017-10-28T06:47:47.148Z,92.18
2017-10-28T06:48:47.097Z,91.51
2017-10-28T06:49:47.088Z,91.03
2017-10-28T06:50:47.021Z,90.84
2017-10-28T06:51:46.982Z,91.80
2017-10-28T06:52:46.966Z,92.18
2017-10-28T06:53:46.898Z,90.66
2017-10-28T06:54:46.858Z,90.13
2017-10-28T06:55:46.830Z,89.89
2017-10-28T06:56:46.772Z,89.94
2017-10-28T06:57:46.723Z,89.84
2017-10-28T06:58:46.701Z,89.65
2017-10-28T06:59:46.658Z,90.37
2017-10-28T07:00:46.647Z,90.89
2017-10-28T07:01:46.580Z,90.70
2017-10-28T07:02:46.528Z,90.32
2017-10-28T07:03:46.507Z,89.27
2017-10-28T07:04:46.469Z,91.46
2017-10-28T07:05:46.403Z,91.56
2017-10-28T07:06:46.355Z,90.18
2017-10-28T07:07:46.336Z,90.03
2017-10-28T07:08:46.287Z,90.03
2017-10-28T07:09:46.227Z,90.22
2017-10-28T07:10:46.214Z,90.32
2017-10-28T07:11:46.150Z,90.03
2017-10-28T07:12:46.108Z,90.22
2017-10-28T07:13:46.103Z,90.70
2017-10-28T07:14:46.029Z,89.75
2017-10-28T07:15:46.005Z,89.94
2017-10-28T07:16:45.955Z,89.56
2017-10-28T07:17:45.923Z,89.47
2017-10-28T07:18:45.865Z,89.37
2017-10-28T07:19:45.824Z,89.08
2017-10-28T07:20:45.795Z,90.03
2017-10-28T07:21:45.740Z,90.32
2017-10-28T07:22:45.690Z,89.65
2017-10-28T07:23:45.650Z,88.70
2017-10-28T07:24:45.611Z,88.89
2017-10-28T07:25:45.579Z,89.75
2017-10-28T07:26:45.574Z,89.75
2017-10-28T07:27:45.525Z,89.27
2017-10-28T07:28:45.580Z,88.99
2017-10-28T07:29:45.457Z,88.89
2017-10-28T07:30:45.381Z,88.13
2017-10-28T07:31:45.336Z,87.65
2017-10-28T07:32:45.298Z,87.08
2017-10-28T07:33:45.259Z,88.60
2017-10-28T07:34:45.194Z,88.42
2017-10-28T07:35:45.180Z,87.56
2017-10-28T07:36:45.124Z,87.08
2017-10-28T07:37:45.086Z,87.65
2017-10-28T07:38:45.039Z,87.75
2017-10-28T07:39:44.991Z,87.37
2017-10-28T07:40:44.971Z,88.13
2017-10-28T07:41:44.936Z,88.70
2017-10-28T07:42:44.879Z,88.89
2017-10-28T07:43:44.844Z,88.23
2017-10-28T07:44:44.788Z,87.94
2017-10-28T07:45:44.767Z,87.56
2017-10-28T07:46:44.713Z,87.46
2017-10-28T07:47:44.670Z,87.85
2017-10-28T07:48:44.632Z,87.75
2017-10-28T07:49:44.631Z,86.99
2017-10-28T07:50:44.563Z,87.37
2017-10-28T07:51:44.506Z,87.46
2017-10-28T07:52:44.465Z,87.94
2017-10-28T07:53:44.453Z,87.85
2017-10-28T07:54:44.394Z,87.75
2017-10-28T07:55:44.373Z,87.94
2017-10-28T07:56:44.323Z,88.13
2017-10-28T07:57:44.284Z,87.27
2017-10-28T07:58:44.230Z,87.18
2017-10-28T07:59:44.186Z,87.27
2017-10-28T08:00:44.150Z,86.32
2017-10-28T08:01:44.110Z,86.70
2017-10-28T08:02:44.068Z,87.75
2017-10-28T08:03:44.032Z,87.46
2017-10-28T08:04:43.982Z,86.61
2017-10-28T08:05:43.934Z,86.42
2017-10-28T08:06:43.895Z,87.27
2017-10-28T08:07:43.867Z,87.08
2017-10-28T08:08:43.822Z,86.61
2017-10-28T08:09:43.774Z,86.61
2017-10-28T08:10:43.733Z,86.80
2017-10-28T08:11:43.689Z,86.32
2017-10-28T08:12:43.667Z,86.99
2017-10-28T08:13:43.607Z,87.37
2017-10-28T08:14:43.576Z,86.99
2017-10-28T08:15:43.542Z,86.13
2017-10-28T08:16:43.512Z,85.75
2017-10-28T08:17:43.460Z,86.32
2017-10-28T08:18:43.409Z,87.65
2017-10-28T08:19:43.371Z,86.70
2017-10-28T08:20:43.335Z,87.94
2017-10-28T08:21:43.281Z,87.27
2017-10-28T08:22:43.249Z,86.99
2017-10-28T08:23:43.216Z,86.51
2017-10-28T08:24:43.185Z,86.70
2017-10-28T08:25:43.137Z,87.37
2017-10-28T08:26:43.095Z,86.70
2017-10-28T08:27:43.036Z,86.70
2017-10-28T08:28:43.020Z,86.70
2017-10-28T08:29:43.007Z,87.37
2017-10-28T08:30:42.947Z,86.13
2017-10-28T08:31:42.880Z,85.47
2017-10-28T08:32:42.830Z,85.56
2017-10-28T08:33:42.801Z,86.61
2017-10-28T08:34:42.750Z,87.27
2017-10-28T08:35:42.713Z,86.13
2017-10-28T08:36:42.676Z,86.61
2017-10-28T08:37:42.644Z,86.99
2017-10-28T08:38:42.596Z,86.70
2017-10-28T08:39:42.584Z,86.80
2017-10-28T08:40:42.504Z,87.08
2017-10-28T08:41:42.470Z,87.46
2017-10-28T08:42:42.433Z,87.18
2017-10-28T08:43:42.397Z,87.27
2017-10-28T08:44:42.333Z,87.37
2017-10-28T08:45:42.302Z,87.18
2017-10-28T08:46:42.261Z,87.18
2017-10-28T08:47:42.220Z,87.27
2017-10-28T08:48:42.186Z,87.56
2017-10-28T08:49:42.150Z,86.99
2017-10-28T08:50:42.117Z,87.37
2017-10-28T08:51:42.062Z,87.18
2017-10-28T08:52:42.007Z,87.37
2017-10-28T08:53:41.969Z,87.37
2017-10-28T08:54:41.940Z,87.46
2017-10-28T08:55:41.898Z,87.46
2017-10-28T08:56:41.851Z,87.46
2017-10-28T08:57:41.829Z,87.37
2017-10-28T08:58:41.762Z,86.70
2017-10-28T08:59:41.730Z,87.37
2017-10-28T09:00:41.694Z,87.08
2017-10-28T09:01:41.641Z,86.90
2017-10-28T09:02:41.610Z,86.32
2017-10-28T09:03:41.574Z,87.56
2017-10-28T09:04:41.567Z,86.99
2017-10-28T09:05:41.503Z,86.61
2017-10-28T09:06:41.455Z,85.47
2017-10-28T09:07:41.422Z,85.18
2017-10-28T09:08:41.378Z,85.94
2017-10-28T09:09:41.321Z,85.94
2017-10-28T09:10:41.292Z,85.94
2017-10-28T09:11:41.255Z,85.28
2017-10-28T09:12:41.198Z,84.99
2017-10-28T09:13:41.159Z,84.89
2017-10-28T09:14:41.113Z,84.99
2017-10-28T09:15:41.094Z,84.99
2017-10-28T09:16:41.054Z,85.94
2017-10-28T09:17:41.002Z,86.32
2017-10-28T09:18:40.959Z,85.75
2017-10-28T09:19:40.907Z,85.37
2017-10-28T09:20:40.884Z,85.08
2017-10-28T09:21:40.852Z,85.18
2017-10-28T09:22:40.799Z,85.28
2017-10-28T09:23:40.759Z,85.28
2017-10-28T09:24:40.716Z,84.80
2017-10-28T09:25:40.679Z,84.99
2017-10-28T09:26:40.643Z,85.47
2017-10-28T09:27:40.585Z,83.85
2017-10-28T09:28:40.556Z,85.37
2017-10-28T09:29:40.534Z,84.70
2017-10-28T09:30:40.483Z,84.61
2017-10-28T09:31:40.430Z,85.22
2017-10-28T09:32:40.396Z,85.89
2017-10-28T09:33:40.346Z,85.22
2017-10-28T09:34:40.309Z,84.46
2017-10-28T09:35:40.269Z,83.98
2017-10-28T09:36:40.225Z,84.56
2017-10-28T09:37:40.185Z,83.75
2017-10-28T09:38:40.194Z,84.33
2017-10-28T09:39:40.095Z,84.17
2017-10-28T09:40:40.052Z,83.98
2017-10-28T09:41:40.038Z,84.08
2017-10-28T09:42:39.994Z,83.89
2017-10-28T09:43:39.926Z,85.13
2017-10-28T09:44:39.900Z,85.75
2017-10-28T09:45:39.874Z,84.52
2017-10-28T09:46:39.840Z,84.46
2017-10-28T09:47:39.791Z,84.52
2017-10-28T09:48:39.779Z,84.61
2017-10-28T09:49:41.874Z,84.17
2017-10-28T09:50:39.686Z,84.13
2017-10-28T09:51:39.695Z,84.52
2017-10-28T09:52:39.589Z,84.36
2017-10-28T09:53:39.537Z,84.23
2017-10-28T09:54:39.507Z,85.51
2017-10-28T09:55:39.455Z,84.84
2017-10-28T09:56:39.398Z,83.98
2017-10-28T09:57:39.373Z,83.13
2017-10-28T09:58:39.325Z,84.36
2017-10-28T09:59:39.291Z,84.56
2017-10-28T10:00:39.248Z,83.80
2017-10-28T10:01:39.240Z,84.17
2017-10-28T10:02:39.163Z,85.18
2017-10-28T10:03:39.127Z,84.89
2017-10-28T10:04:39.080Z,84.75
2017-10-28T10:05:39.045Z,84.36
2017-10-28T10:06:39.019Z,84.94
2017-10-28T10:07:38.966Z,83.98
2017-10-28T10:08:38.926Z,84.46
2017-10-28T10:09:38.890Z,84.56
2017-10-28T10:10:38.846Z,83.89
2017-10-28T10:11:38.803Z,82.84
2017-10-28T10:12:38.761Z,83.51
2017-10-28T10:13:38.721Z,82.84
2017-10-28T10:14:38.689Z,83.32
2017-10-28T10:15:38.656Z,83.32
2017-10-28T10:16:38.603Z,83.32
2017-10-28T10:17:38.571Z,82.93
2017-10-28T10:18:38.529Z,83.32
2017-10-28T10:19:38.475Z,83.80
2017-10-28T10:20:38.447Z,84.08
2017-10-28T10:21:38.390Z,82.65
2017-10-28T10:22:38.357Z,83.03
2017-10-28T10:23:38.327Z,83.32
2017-10-28T10:24:38.291Z,82.56
2017-10-28T10:25:38.282Z,82.84
2017-10-28T10:26:38.198Z,83.41
2017-10-28T10:27:38.174Z,83.03
2017-10-28T10:28:38.115Z,83.51
2017-10-28T10:29:38.101Z,83.89
2017-10-28T10:30:38.035Z,82.18
2017-10-28T10:31:38.035Z,82.18
2017-10-28T10:32:37.962Z,82.56
2017-10-28T10:33:37.905Z,82.37
2017-10-28T10:34:37.872Z,82.75
2017-10-28T10:35:37.838Z,82.56
2017-10-28T10:36:37.805Z,82.37
2017-10-28T10:37:37.757Z,82.84
2017-10-28T10:38:37.712Z,83.13
2017-10-28T10:39:37.679Z,83.70
2017-10-28T10:40:37.644Z,82.56
2017-10-28T10:41:37.580Z,82.37
2017-10-28T10:42:37.556Z,82.37
2017-10-28T10:43:37.512Z,83.03
2017-10-28T10:44:37.469Z,82.84
2017-10-28T10:45:37.433Z,83.13
2017-10-28T10:46:37.429Z,83.61
2017-10-28T10:47:37.365Z,83.32
2017-10-28T10:48:37.324Z,82.65
2017-10-28T10:49:37.266Z,83.13
2017-10-28T10:50:37.231Z,83.51
2017-10-28T10:51:37.180Z,83.98
2017-10-28T10:52:37.152Z,83.03
2017-10-28T10:53:37.124Z,82.75
2017-10-28T10:54:37.065Z,83.03
2017-10-28T10:55:37.061Z,82.46
2017-10-28T10:56:36.991Z,82.75
2017-10-28T10:57:36.960Z,81.89
2017-10-28T10:58:36.906Z,81.70
2017-10-28T10:59:36.928Z,81.70
2017-10-28T11:00:36.824Z,81.70
2017-10-28T11:01:36.795Z,82.37
2017-10-28T11:02:36.726Z,82.18
2017-10-28T11:03:36.706Z,81.70
2017-10-28T11:04:36.674Z,82.37
2017-10-28T11:05:36.634Z,81.79
2017-10-28T11:06:36.582Z,81.41
2017-10-28T11:07:36.547Z,82.41
2017-10-28T11:08:36.508Z,82.27
2017-10-28T11:09:36.482Z,82.21
2017-10-28T11:10:36.415Z,82.27
2017-10-28T11:11:36.374Z,82.60
2017-10-28T11:12:36.371Z,82.37
2017-10-28T11:13:36.289Z,82.12
2017-10-28T11:14:36.280Z,81.55
2017-10-28T11:15:36.212Z,82.08
2017-10-28T11:16:36.176Z,81.55
2017-10-28T11:17:36.137Z,82.46
2017-10-28T11:18:36.098Z,82.12
2017-10-28T11:19:36.068Z,82.75
2017-10-28T11:20:36.016Z,81.51
2017-10-28T11:21:36.049Z,81.98
2017-10-28T11:22:35.926Z,81.93
2017-10-28T11:23:35.907Z,82.08
2017-10-28T11:24:35.862Z,82.27
2017-10-28T11:25:35.825Z,82.31
2017-10-28T11:26:35.770Z,81.79
2017-10-28T11:27:35.738Z,82.08
2017-10-28T11:28:35.690Z,82.41
2017-10-28T11:29:35.661Z,83.03
2017-10-28T11:30:35.627Z,81.70
2017-10-28T11:31:35.570Z,82.27
2017-10-28T11:32:35.564Z,82.75
2017-10-28T11:33:35.514Z,83.03
2017-10-28T11:34:35.520Z,82.27
2017-10-28T11:35:35.423Z,83.22
2017-10-28T11:36:35.375Z,83.03
2017-10-28T11:37:35.365Z,83.51
2017-10-28T11:38:35.286Z,83.32
2017-10-28T11:39:35.281Z,83.32
2017-10-28T11:40:35.227Z,84.08
2017-10-28T11:41:35.187Z,82.75
2017-10-28T11:42:35.133Z,81.79
2017-10-28T11:43:35.107Z,82.84
2017-10-28T11:44:35.050Z,82.84
2017-10-28T11:45:35.023Z,82.56
2017-10-28T11:46:34.968Z,82.37
2017-10-28T11:47:34.937Z,82.75
2017-10-28T11:48:34.890Z,83.32
2017-10-28T11:49:34.850Z,82.84
2017-10-28T11:50:34.820Z,82.37
2017-10-28T11:51:34.780Z,83.22
2017-10-28T11:52:34.747Z,83.51
2017-10-28T11:53:34.715Z,83.22
2017-10-28T11:54:34.674Z,82.27
2017-10-28T11:55:34.604Z,82.18
2017-10-28T11:56:34.578Z,81.93
2017-10-28T11:57:34.538Z,82.27
2017-10-28T11:58:34.512Z,82.27
2017-10-28T11:59:34.467Z,81.89
2017-10-28T12:00:34.416Z,81.70
2017-10-28T12:01:34.374Z,82.12
2017-10-28T12:02:34.338Z,82.31
2017-10-28T12:03:34.312Z,83.03
2017-10-28T12:04:34.255Z,82.12
2017-10-28T12:05:34.207Z,81.89
2017-10-28T12:06:34.186Z,81.65
2017-10-28T12:07:34.138Z,81.17
2017-10-28T12:08:34.083Z,83.26
2017-10-28T12:09:34.077Z,82.31
2017-10-28T12:10:34.015Z,82.65
2017-10-28T12:11:33.975Z,82.21
2017-10-28T12:12:33.947Z,81.46
2017-10-28T12:13:33.908Z,82.12
2017-10-28T12:14:33.958Z,82.03
2017-10-28T12:15:33.818Z,81.84
2017-10-28T12:16:33.774Z,82.79
2017-10-28T12:17:33.728Z,82.79
2017-10-28T12:18:33.718Z,82.79
2017-10-28T12:19:33.646Z,82.41
2017-10-28T12:20:33.609Z,81.70
2017-10-28T12:21:33.559Z,82.84
2017-10-28T12:22:33.545Z,82.50
2017-10-28T12:23:33.492Z,81.70
2017-10-28T12:24:33.460Z,81.70
2017-10-28T12:25:33.406Z,81.89
2017-10-28T12:26:33.396Z,82.08
2017-10-28T12:27:33.335Z,81.70
2017-10-28T12:28:33.315Z,81.98
2017-10-28T12:29:33.256Z,81.41
2017-10-28T12:30:33.217Z,81.89
2017-10-28T12:31:33.733Z,81.89
2017-10-28T12:32:33.143Z,82.08
2017-10-28T12:33:33.092Z,81.51
2017-10-28T12:34:33.065Z,82.46
2017-10-28T12:35:33.034Z,81.60
2017-10-28T12:36:32.984Z,82.27
2017-10-28T12:37:32.946Z,81.89
2017-10-28T12:38:32.886Z,81.41
2017-10-28T12:39:32.863Z,81.98
2017-10-28T12:40:32.827Z,83.13
2017-10-28T12:41:32.788Z,82.75
2017-10-28T12:42:32.741Z,81.79
2017-10-28T12:43:32.715Z,81.98
2017-10-28T12:44:32.665Z,82.18
2017-10-28T12:45:32.632Z,81.51
2017-10-28T12:46:32.570Z,81.70
2017-10-28T12:47:32.538Z,82.27
2017-10-28T12:48:32.506Z,82.27
2017-10-28T12:49:32.501Z,81.79
2017-10-28T12:50:32.408Z,82.08
2017-10-28T12:51:32.364Z,83.13